sensor_id;sensor_type;location;lat;lon;timestamp;temperature;humidity
59301;DHT22;45073;52.740;6.784;2023-12-22T00:02:20;6.70;99.90
59301;DHT22;45073;52.740;6.784;2023-12-22T00:04:46;6.70;99.90
59301;DHT22;45073;52.740;6.784;2023-12-22T00:07:11;6.70;99.90
59301;DHT22;45073;52.740;6.784;2023-12-22T00:09:37;6.70;99.90
59301;DHT22;45073;52.740;6.784;2023-12-22T00:12:03;6.70;99.90
59301;DHT22;45073;52.740;6.784;2023-12-22T00:14:29;6.70;99.90
59301;DHT22;45073;52.740;6.784;2023-12-22T00:16:54;6.70;99.90
59301;DHT22;45073;52.740;6.784;2023-12-22T00:19:20;6.60;99.90
59301;DHT22;45073;52.740;6.784;2023-12-22T00:21:46;6.60;99.90
59301;DHT22;45073;52.740;6.784;2023-12-22T00:24:11;6.70;99.90
59301;DHT22;45073;52.740;6.784;2023-12-22T00:26:37;6.60;99.90
59301;DHT22;45073;52.740;6.784;2023-12-22T00:29:02;6.70;99.90
59301;DHT22;45073;52.740;6.784;2023-12-22T00:31:28;6.70;99.90
59301;DHT22;45073;52.740;6.784;2023-12-22T00:33:54;6.70;99.90
59301;DHT22;45073;52.740;6.784;2023-12-22T00:36:19;6.60;99.90
59301;DHT22;45073;52.740;6.784;2023-12-22T00:38:48;6.70;99.90
59301;DHT22;45073;52.740;6.784;2023-12-22T00:41:14;6.70;99.90
59301;DHT22;45073;52.740;6.784;2023-12-22T00:43:39;6.60;99.90
59301;DHT22;45073;52.740;6.784;2023-12-22T00:46:05;6.60;99.90
59301;DHT22;45073;52.740;6.784;2023-12-22T00:48:31;6.60;99.90
59301;DHT22;45073;52.740;6.784;2023-12-22T00:50:57;6.60;99.90
59301;DHT22;45073;52.740;6.784;2023-12-22T00:53:23;6.60;99.90
59301;DHT22;45073;52.740;6.784;2023-12-22T00:55:49;6.60;99.90
59301;DHT22;45073;52.740;6.784;2023-12-22T00:58:14;6.60;99.90
59301;DHT22;45073;52.740;6.784;2023-12-22T01:00:40;6.60;99.90
59301;DHT22;45073;52.740;6.784;2023-12-22T01:03:05;6.60;99.90
59301;DHT22;45073;52.740;6.784;2023-12-22T01:05:31;6.60;99.90
59301;DHT22;45073;52.740;6.784;2023-12-22T01:07:56;6.50;99.90
59301;DHT22;45073;52.740;6.784;2023-12-22T01:10:22;6.40;99.90
59301;DHT22;45073;52.740;6.784;2023-12-22T01:12:48;6.40;99.90
59301;DHT22;45073;52.740;6.784;2023-12-22T01:15:13;6.40;99.90
59301;DHT22;45073;52.740;6.784;2023-12-22T01:17:39;6.40;99.90
59301;DHT22;45073;52.740;6.784;2023-12-22T01:20:05;6.40;99.90
59301;DHT22;45073;52.740;6.784;2023-12-22T01:22:30;6.40;99.90
59301;DHT22;45073;52.740;6.784;2023-12-22T01:24:57;6.40;99.90
59301;DHT22;45073;52.740;6.784;2023-12-22T01:27:23;6.50;99.90
59301;DHT22;45073;52.740;6.784;2023-12-22T01:29:48;6.50;99.90
59301;DHT22;45073;52.740;6.784;2023-12-22T01:32:14;6.50;99.90
59301;DHT22;45073;52.740;6.784;2023-12-22T01:34:40;6.50;99.90
59301;DHT22;45073;52.740;6.784;2023-12-22T01:37:05;6.50;99.90
59301;DHT22;45073;52.740;6.784;2023-12-22T01:39:31;6.50;99.90
59301;DHT22;45073;52.740;6.784;2023-12-22T01:41:57;6.50;99.90
59301;DHT22;45073;52.740;6.784;2023-12-22T01:44:22;6.50;99.90
59301;DHT22;45073;52.740;6.784;2023-12-22T01:46:49;6.50;99.90
59301;DHT22;45073;52.740;6.784;2023-12-22T01:49:15;6.50;99.90
59301;DHT22;45073;52.740;6.784;2023-12-22T01:51:42;6.50;99.90
59301;DHT22;45073;52.740;6.784;2023-12-22T01:54:07;6.50;99.90
59301;DHT22;45073;52.740;6.784;2023-12-22T01:56:34;6.50;99.90
59301;DHT22;45073;52.740;6.784;2023-12-22T01:59:01;6.50;99.90
59301;DHT22;45073;52.740;6.784;2023-12-22T02:01:28;6.50;99.90
59301;DHT22;45073;52.740;6.784;2023-12-22T02:03:54;6.50;99.90
59301;DHT22;45073;52.740;6.784;2023-12-22T02:06:20;6.50;99.90
59301;DHT22;45073;52.740;6.784;2023-12-22T02:08:47;6.50;99.90
59301;DHT22;45073;52.740;6.784;2023-12-22T02:11:16;6.50;99.90
59301;DHT22;45073;52.740;6.784;2023-12-22T02:13:43;6.50;99.90
59301;DHT22;45073;52.740;6.784;2023-12-22T02:16:39;6.50;99.90
59301;DHT22;45073;52.740;6.784;2023-12-22T02:19:33;6.40;99.90
59301;DHT22;45073;52.740;6.784;2023-12-22T02:22:05;6.30;99.90
59301;DHT22;45073;52.740;6.784;2023-12-22T02:24:31;6.20;99.90
59301;DHT22;45073;52.740;6.784;2023-12-22T02:27:14;6.20;99.90
59301;DHT22;45073;52.740;6.784;2023-12-22T02:29:49;6.20;99.90
59301;DHT22;45073;52.740;6.784;2023-12-22T02:32:25;6.20;99.90
59301;DHT22;45073;52.740;6.784;2023-12-22T02:34:55;6.20;99.90
59301;DHT22;45073;52.740;6.784;2023-12-22T02:37:22;6.20;99.90
59301;DHT22;45073;52.740;6.784;2023-12-22T02:39:50;6.20;99.90
59301;DHT22;45073;52.740;6.784;2023-12-22T02:42:17;6.30;99.90
59301;DHT22;45073;52.740;6.784;2023-12-22T02:44:45;6.30;99.90
59301;DHT22;45073;52.740;6.784;2023-12-22T02:47:11;6.30;99.90
59301;DHT22;45073;52.740;6.784;2023-12-22T02:49:36;6.30;99.90
59301;DHT22;45073;52.740;6.784;2023-12-22T02:52:02;6.40;99.90
59301;DHT22;45073;52.740;6.784;2023-12-22T02:54:28;6.40;99.90
59301;DHT22;45073;52.740;6.784;2023-12-22T02:56:55;6.60;99.90
59301;DHT22;45073;52.740;6.784;2023-12-22T02:59:21;6.60;99.90
59301;DHT22;45073;52.740;6.784;2023-12-22T03:01:46;6.50;99.90
59301;DHT22;45073;52.740;6.784;2023-12-22T03:04:12;6.50;99.90
59301;DHT22;45073;52.740;6.784;2023-12-22T03:06:37;6.50;99.90
59301;DHT22;45073;52.740;6.784;2023-12-22T03:09:03;6.50;99.90
59301;DHT22;45073;52.740;6.784;2023-12-22T03:11:29;6.50;99.90
59301;DHT22;45073;52.740;6.784;2023-12-22T03:13:54;6.50;99.90
59301;DHT22;45073;52.740;6.784;2023-12-22T03:16:20;6.50;99.90
59301;DHT22;45073;52.740;6.784;2023-12-22T03:18:45;6.50;99.90
59301;DHT22;45073;52.740;6.784;2023-12-22T03:21:18;6.60;99.90
59301;DHT22;45073;52.740;6.784;2023-12-22T03:23:44;6.50;99.90
59301;DHT22;45073;52.740;6.784;2023-12-22T03:26:10;6.50;99.90
59301;DHT22;45073;52.740;6.784;2023-12-22T03:28:36;6.50;99.90
59301;DHT22;45073;52.740;6.784;2023-12-22T03:31:02;6.50;99.90
59301;DHT22;45073;52.740;6.784;2023-12-22T03:33:27;6.40;99.90
59301;DHT22;45073;52.740;6.784;2023-12-22T03:35:53;6.30;99.90
59301;DHT22;45073;52.740;6.784;2023-12-22T03:38:19;6.30;99.90
59301;DHT22;45073;52.740;6.784;2023-12-22T03:40:45;6.30;99.90
59301;DHT22;45073;52.740;6.784;2023-12-22T03:43:10;6.30;99.90
59301;DHT22;45073;52.740;6.784;2023-12-22T03:45:36;6.20;99.90
59301;DHT22;45073;52.740;6.784;2023-12-22T03:48:01;6.10;99.90
59301;DHT22;45073;52.740;6.784;2023-12-22T03:50:27;6.10;99.90
59301;DHT22;45073;52.740;6.784;2023-12-22T03:52:53;6.10;99.90
59301;DHT22;45073;52.740;6.784;2023-12-22T03:55:18;6.10;99.90
59301;DHT22;45073;52.740;6.784;2023-12-22T03:57:44;6.00;99.90
59301;DHT22;45073;52.740;6.784;2023-12-22T04:00:10;6.00;99.90
59301;DHT22;45073;52.740;6.784;2023-12-22T04:02:35;6.00;99.90
59301;DHT22;45073;52.740;6.784;2023-12-22T04:05:01;6.00;99.90
59301;DHT22;45073;52.740;6.784;2023-12-22T04:07:27;6.00;99.90
59301;DHT22;45073;52.740;6.784;2023-12-22T04:09:52;6.00;99.90
59301;DHT22;45073;52.740;6.784;2023-12-22T04:12:18;6.00;99.90
59301;DHT22;45073;52.740;6.784;2023-12-22T04:14:43;5.90;99.90
59301;DHT22;45073;52.740;6.784;2023-12-22T04:17:10;5.90;99.90
59301;DHT22;45073;52.740;6.784;2023-12-22T04:19:36;5.90;99.90
59301;DHT22;45073;52.740;6.784;2023-12-22T04:22:01;5.90;99.90
59301;DHT22;45073;52.740;6.784;2023-12-22T04:24:28;5.90;99.90
59301;DHT22;45073;52.740;6.784;2023-12-22T04:26:53;5.90;99.90
59301;DHT22;45073;52.740;6.784;2023-12-22T04:29:19;5.90;99.90
59301;DHT22;45073;52.740;6.784;2023-12-22T04:31:45;5.90;99.90
59301;DHT22;45073;52.740;6.784;2023-12-22T04:34:13;5.80;99.90
59301;DHT22;45073;52.740;6.784;2023-12-22T04:36:39;5.80;99.90
59301;DHT22;45073;52.740;6.784;2023-12-22T04:39:05;5.90;99.90
59301;DHT22;45073;52.740;6.784;2023-12-22T04:41:30;5.90;99.90
59301;DHT22;45073;52.740;6.784;2023-12-22T04:43:56;5.90;99.90
59301;DHT22;45073;52.740;6.784;2023-12-22T04:46:22;5.90;99.90
59301;DHT22;45073;52.740;6.784;2023-12-22T04:48:47;6.00;99.90
59301;DHT22;45073;52.740;6.784;2023-12-22T04:51:13;5.90;99.90
59301;DHT22;45073;52.740;6.784;2023-12-22T04:53:38;6.00;99.90
59301;DHT22;45073;52.740;6.784;2023-12-22T04:56:04;6.00;99.90
59301;DHT22;45073;52.740;6.784;2023-12-22T04:58:30;6.00;99.90
59301;DHT22;45073;52.740;6.784;2023-12-22T05:00:55;6.00;99.90
59301;DHT22;45073;52.740;6.784;2023-12-22T05:03:21;6.00;99.90
59301;DHT22;45073;52.740;6.784;2023-12-22T05:05:47;6.10;99.90
59301;DHT22;45073;52.740;6.784;2023-12-22T05:08:13;6.10;99.90
59301;DHT22;45073;52.740;6.784;2023-12-22T05:10:38;6.10;99.90
59301;DHT22;45073;52.740;6.784;2023-12-22T05:13:04;6.10;99.90
59301;DHT22;45073;52.740;6.784;2023-12-22T05:15:29;6.20;99.90
59301;DHT22;45073;52.740;6.784;2023-12-22T05:17:55;6.20;99.90
59301;DHT22;45073;52.740;6.784;2023-12-22T05:20:21;6.30;99.90
59301;DHT22;45073;52.740;6.784;2023-12-22T05:22:46;6.30;99.90
59301;DHT22;45073;52.740;6.784;2023-12-22T05:25:13;6.30;99.90
59301;DHT22;45073;52.740;6.784;2023-12-22T05:27:39;6.40;99.90
59301;DHT22;45073;52.740;6.784;2023-12-22T05:30:07;6.40;99.90
59301;DHT22;45073;52.740;6.784;2023-12-22T05:32:33;6.40;99.90
59301;DHT22;45073;52.740;6.784;2023-12-22T05:34:58;6.50;99.90
59301;DHT22;45073;52.740;6.784;2023-12-22T05:37:24;6.50;99.90
59301;DHT22;45073;52.740;6.784;2023-12-22T05:39:49;6.60;99.90
59301;DHT22;45073;52.740;6.784;2023-12-22T05:42:15;6.60;99.90
59301;DHT22;45073;52.740;6.784;2023-12-22T05:44:41;6.60;99.90
59301;DHT22;45073;52.740;6.784;2023-12-22T05:47:07;6.60;99.90
59301;DHT22;45073;52.740;6.784;2023-12-22T05:49:32;6.60;99.90
59301;DHT22;45073;52.740;6.784;2023-12-22T05:51:58;6.60;99.90
59301;DHT22;45073;52.740;6.784;2023-12-22T05:54:24;6.60;99.90
59301;DHT22;45073;52.740;6.784;2023-12-22T05:56:51;6.60;99.90
59301;DHT22;45073;52.740;6.784;2023-12-22T05:59:17;6.60;99.90
59301;DHT22;45073;52.740;6.784;2023-12-22T06:01:43;6.60;99.90
59301;DHT22;45073;52.740;6.784;2023-12-22T06:04:09;6.60;99.90
59301;DHT22;45073;52.740;6.784;2023-12-22T06:06:36;6.60;99.90
59301;DHT22;45073;52.740;6.784;2023-12-22T06:09:02;6.60;99.90
59301;DHT22;45073;52.740;6.784;2023-12-22T06:11:27;6.60;99.90
59301;DHT22;45073;52.740;6.784;2023-12-22T06:13:53;6.60;99.90
59301;DHT22;45073;52.740;6.784;2023-12-22T06:16:18;6.60;99.90
59301;DHT22;45073;52.740;6.784;2023-12-22T06:18:44;6.70;99.90
59301;DHT22;45073;52.740;6.784;2023-12-22T06:21:10;6.70;99.90
59301;DHT22;45073;52.740;6.784;2023-12-22T06:23:36;6.70;99.90
59301;DHT22;45073;52.740;6.784;2023-12-22T06:26:07;6.70;99.90
59301;DHT22;45073;52.740;6.784;2023-12-22T06:28:33;6.70;99.90
59301;DHT22;45073;52.740;6.784;2023-12-22T06:31:01;6.70;99.90
59301;DHT22;45073;52.740;6.784;2023-12-22T06:33:27;6.80;99.90
59301;DHT22;45073;52.740;6.784;2023-12-22T06:35:52;6.80;99.90
59301;DHT22;45073;52.740;6.784;2023-12-22T06:38:19;6.80;99.90
59301;DHT22;45073;52.740;6.784;2023-12-22T06:40:45;6.80;99.90
59301;DHT22;45073;52.740;6.784;2023-12-22T06:43:12;6.80;99.90
59301;DHT22;45073;52.740;6.784;2023-12-22T06:45:38;6.80;99.90
59301;DHT22;45073;52.740;6.784;2023-12-22T06:48:06;6.80;99.90
59301;DHT22;45073;52.740;6.784;2023-12-22T06:50:31;6.80;99.90
59301;DHT22;45073;52.740;6.784;2023-12-22T06:52:57;6.80;99.90
59301;DHT22;45073;52.740;6.784;2023-12-22T06:55:23;6.80;99.90
59301;DHT22;45073;52.740;6.784;2023-12-22T06:57:49;6.80;99.90
59301;DHT22;45073;52.740;6.784;2023-12-22T07:00:15;6.80;99.90
59301;DHT22;45073;52.740;6.784;2023-12-22T07:02:40;6.80;99.90
59301;DHT22;45073;52.740;6.784;2023-12-22T07:07:35;6.90;99.90
59301;DHT22;45073;52.740;6.784;2023-12-22T07:10:04;6.90;99.90
59301;DHT22;45073;52.740;6.784;2023-12-22T07:12:30;7.00;99.90
59301;DHT22;45073;52.740;6.784;2023-12-22T07:14:56;7.00;99.90
59301;DHT22;45073;52.740;6.784;2023-12-22T07:17:21;7.00;99.90
59301;DHT22;45073;52.740;6.784;2023-12-22T07:19:47;7.00;99.90
59301;DHT22;45073;52.740;6.784;2023-12-22T07:22:13;7.00;99.90
59301;DHT22;45073;52.740;6.784;2023-12-22T07:24:40;7.00;99.90
59301;DHT22;45073;52.740;6.784;2023-12-22T07:27:05;7.00;99.90
59301;DHT22;45073;52.740;6.784;2023-12-22T07:29:31;7.00;99.90
59301;DHT22;45073;52.740;6.784;2023-12-22T07:31:57;7.10;99.90
59301;DHT22;45073;52.740;6.784;2023-12-22T07:34:22;7.00;99.90
59301;DHT22;45073;52.740;6.784;2023-12-22T07:36:48;7.10;99.90
59301;DHT22;45073;52.740;6.784;2023-12-22T07:39:14;7.00;99.90
59301;DHT22;45073;52.740;6.784;2023-12-22T07:41:40;7.10;99.90
59301;DHT22;45073;52.740;6.784;2023-12-22T07:44:05;7.00;99.90
59301;DHT22;45073;52.740;6.784;2023-12-22T07:46:31;7.10;99.90
59301;DHT22;45073;52.740;6.784;2023-12-22T07:48:57;7.00;99.90
59301;DHT22;45073;52.740;6.784;2023-12-22T07:51:22;7.10;99.90
59301;DHT22;45073;52.740;6.784;2023-12-22T07:53:48;7.10;99.90
59301;DHT22;45073;52.740;6.784;2023-12-22T07:56:13;7.10;99.90
59301;DHT22;45073;52.740;6.784;2023-12-22T07:58:39;7.10;99.90
59301;DHT22;45073;52.740;6.784;2023-12-22T08:01:05;7.10;99.90
59301;DHT22;45073;52.740;6.784;2023-12-22T08:03:33;7.10;99.90
59301;DHT22;45073;52.740;6.784;2023-12-22T08:05:59;7.10;99.90
59301;DHT22;45073;52.740;6.784;2023-12-22T08:08:24;7.10;99.90
59301;DHT22;45073;52.740;6.784;2023-12-22T08:10:50;7.10;99.90
59301;DHT22;45073;52.740;6.784;2023-12-22T08:13:15;7.10;99.90
59301;DHT22;45073;52.740;6.784;2023-12-22T08:15:43;7.10;99.90
59301;DHT22;45073;52.740;6.784;2023-12-22T08:18:09;7.10;99.90
59301;DHT22;45073;52.740;6.784;2023-12-22T08:20:34;7.10;99.90
59301;DHT22;45073;52.740;6.784;2023-12-22T08:23:00;7.10;99.90
59301;DHT22;45073;52.740;6.784;2023-12-22T08:25:26;7.10;99.90
59301;DHT22;45073;52.740;6.784;2023-12-22T08:27:51;7.10;99.90
59301;DHT22;45073;52.740;6.784;2023-12-22T08:30:17;7.10;99.90
59301;DHT22;45073;52.740;6.784;2023-12-22T08:32:43;7.10;99.90
59301;DHT22;45073;52.740;6.784;2023-12-22T08:35:08;7.10;99.90
59301;DHT22;45073;52.740;6.784;2023-12-22T08:37:34;7.10;99.90
59301;DHT22;45073;52.740;6.784;2023-12-22T08:40:00;7.10;99.90
59301;DHT22;45073;52.740;6.784;2023-12-22T08:42:26;7.10;99.90
59301;DHT22;45073;52.740;6.784;2023-12-22T08:44:53;7.10;99.90
59301;DHT22;45073;52.740;6.784;2023-12-22T08:47:19;7.10;99.90
59301;DHT22;45073;52.740;6.784;2023-12-22T08:49:44;7.00;99.90
59301;DHT22;45073;52.740;6.784;2023-12-22T08:52:10;7.00;99.90
59301;DHT22;45073;52.740;6.784;2023-12-22T08:54:35;7.00;99.90
59301;DHT22;45073;52.740;6.784;2023-12-22T08:57:04;7.00;99.90
59301;DHT22;45073;52.740;6.784;2023-12-22T08:59:30;7.00;99.90
59301;DHT22;45073;52.740;6.784;2023-12-22T09:01:55;7.00;99.90
59301;DHT22;45073;52.740;6.784;2023-12-22T09:04:21;7.00;99.90
59301;DHT22;45073;52.740;6.784;2023-12-22T09:06:51;7.00;99.90
59301;DHT22;45073;52.740;6.784;2023-12-22T09:09:17;7.10;99.90
59301;DHT22;45073;52.740;6.784;2023-12-22T09:11:43;7.10;99.90
59301;DHT22;45073;52.740;6.784;2023-12-22T09:14:09;7.10;99.90
59301;DHT22;45073;52.740;6.784;2023-12-22T09:16:35;7.10;99.90
59301;DHT22;45073;52.740;6.784;2023-12-22T09:19:02;7.20;99.90
59301;DHT22;45073;52.740;6.784;2023-12-22T09:21:28;7.20;99.90
59301;DHT22;45073;52.740;6.784;2023-12-22T09:23:53;7.20;99.90
59301;DHT22;45073;52.740;6.784;2023-12-22T09:26:20;7.30;99.90
59301;DHT22;45073;52.740;6.784;2023-12-22T09:28:46;7.30;99.90
59301;DHT22;45073;52.740;6.784;2023-12-22T09:31:11;7.40;99.90
59301;DHT22;45073;52.740;6.784;2023-12-22T09:33:41;7.50;99.90
59301;DHT22;45073;52.740;6.784;2023-12-22T09:36:07;7.50;99.90
59301;DHT22;45073;52.740;6.784;2023-12-22T09:38:33;7.50;99.90
59301;DHT22;45073;52.740;6.784;2023-12-22T09:40:59;7.50;99.90
59301;DHT22;45073;52.740;6.784;2023-12-22T09:43:25;7.40;99.90
59301;DHT22;45073;52.740;6.784;2023-12-22T09:45:51;7.50;99.90
59301;DHT22;45073;52.740;6.784;2023-12-22T09:48:18;7.40;99.90
59301;DHT22;45073;52.740;6.784;2023-12-22T09:50:46;7.40;99.90
59301;DHT22;45073;52.740;6.784;2023-12-22T09:53:16;7.40;99.90
59301;DHT22;45073;52.740;6.784;2023-12-22T09:55:46;7.40;99.90
59301;DHT22;45073;52.740;6.784;2023-12-22T09:58:15;7.40;99.90
59301;DHT22;45073;52.740;6.784;2023-12-22T10:00:42;7.30;99.90
59301;DHT22;45073;52.740;6.784;2023-12-22T10:03:10;7.30;99.90
59301;DHT22;45073;52.740;6.784;2023-12-22T10:05:37;7.30;99.90
59301;DHT22;45073;52.740;6.784;2023-12-22T10:08:04;7.30;99.90
59301;DHT22;45073;52.740;6.784;2023-12-22T10:10:32;7.30;99.90
59301;DHT22;45073;52.740;6.784;2023-12-22T10:12:59;7.30;99.90
59301;DHT22;45073;52.740;6.784;2023-12-22T10:15:26;7.30;99.90
59301;DHT22;45073;52.740;6.784;2023-12-22T10:17:55;7.30;99.90
59301;DHT22;45073;52.740;6.784;2023-12-22T10:20:21;7.30;99.90
59301;DHT22;45073;52.740;6.784;2023-12-22T10:22:47;7.20;99.90
59301;DHT22;45073;52.740;6.784;2023-12-22T10:25:15;7.20;99.90
59301;DHT22;45073;52.740;6.784;2023-12-22T10:27:43;7.20;99.90
59301;DHT22;45073;52.740;6.784;2023-12-22T10:30:10;7.20;99.90
59301;DHT22;45073;52.740;6.784;2023-12-22T10:32:40;7.10;99.90
59301;DHT22;45073;52.740;6.784;2023-12-22T10:35:09;7.10;99.90
59301;DHT22;45073;52.740;6.784;2023-12-22T10:37:34;7.10;99.90
59301;DHT22;45073;52.740;6.784;2023-12-22T10:40:04;7.10;99.90
59301;DHT22;45073;52.740;6.784;2023-12-22T10:42:30;7.10;99.90
59301;DHT22;45073;52.740;6.784;2023-12-22T10:44:56;7.00;99.90
59301;DHT22;45073;52.740;6.784;2023-12-22T10:47:22;7.00;99.90
59301;DHT22;45073;52.740;6.784;2023-12-22T10:49:48;7.00;99.90
59301;DHT22;45073;52.740;6.784;2023-12-22T10:52:16;7.00;99.90
59301;DHT22;45073;52.740;6.784;2023-12-22T10:54:46;7.00;99.90
59301;DHT22;45073;52.740;6.784;2023-12-22T10:57:13;7.00;99.90
59301;DHT22;45073;52.740;6.784;2023-12-22T10:59:46;7.00;99.90
59301;DHT22;45073;52.740;6.784;2023-12-22T11:02:17;7.00;99.90
59301;DHT22;45073;52.740;6.784;2023-12-22T11:05:00;7.00;99.90
59301;DHT22;45073;52.740;6.784;2023-12-22T11:07:28;7.00;99.90
59301;DHT22;45073;52.740;6.784;2023-12-22T11:09:56;7.00;99.90
59301;DHT22;45073;52.740;6.784;2023-12-22T11:12:24;7.10;99.90
59301;DHT22;45073;52.740;6.784;2023-12-22T11:14:52;7.10;99.90
59301;DHT22;45073;52.740;6.784;2023-12-22T11:17:22;7.10;99.90
59301;DHT22;45073;52.740;6.784;2023-12-22T11:19:49;7.10;99.90
59301;DHT22;45073;52.740;6.784;2023-12-22T11:22:18;7.10;99.90
59301;DHT22;45073;52.740;6.784;2023-12-22T11:24:47;7.20;99.90
59301;DHT22;45073;52.740;6.784;2023-12-22T11:27:17;7.20;99.90
59301;DHT22;45073;52.740;6.784;2023-12-22T11:29:50;7.20;99.90
59301;DHT22;45073;52.740;6.784;2023-12-22T11:32:17;7.20;99.90
59301;DHT22;45073;52.740;6.784;2023-12-22T11:34:44;7.20;99.90
59301;DHT22;45073;52.740;6.784;2023-12-22T11:37:16;7.30;99.90
59301;DHT22;45073;52.740;6.784;2023-12-22T11:39:42;7.30;99.90
59301;DHT22;45073;52.740;6.784;2023-12-22T11:42:18;7.30;99.90
59301;DHT22;45073;52.740;6.784;2023-12-22T11:44:44;7.30;99.90
59301;DHT22;45073;52.740;6.784;2023-12-22T11:47:10;7.30;99.90
59301;DHT22;45073;52.740;6.784;2023-12-22T11:49:38;7.30;99.90
59301;DHT22;45073;52.740;6.784;2023-12-22T11:52:14;7.30;99.90
59301;DHT22;45073;52.740;6.784;2023-12-22T11:54:48;7.40;99.90
59301;DHT22;45073;52.740;6.784;2023-12-22T11:59:53;7.40;99.90
59301;DHT22;45073;52.740;6.784;2023-12-22T12:02:18;7.40;99.90
59301;DHT22;45073;52.740;6.784;2023-12-22T12:04:47;7.40;99.90
59301;DHT22;45073;52.740;6.784;2023-12-22T12:07:44;7.40;99.90
59301;DHT22;45073;52.740;6.784;2023-12-22T12:10:58;7.40;99.90
59301;DHT22;45073;52.740;6.784;2023-12-22T12:13:10;7.50;99.90
59301;DHT22;45073;52.740;6.784;2023-12-22T12:15:37;7.50;99.90
59301;DHT22;45073;52.740;6.784;2023-12-22T12:18:04;7.50;99.90
59301;DHT22;45073;52.740;6.784;2023-12-22T12:20:32;7.50;99.90
59301;DHT22;45073;52.740;6.784;2023-12-22T12:22:57;7.50;99.90
59301;DHT22;45073;52.740;6.784;2023-12-22T12:25:24;7.50;99.90
59301;DHT22;45073;52.740;6.784;2023-12-22T12:30:28;7.60;99.90
59301;DHT22;45073;52.740;6.784;2023-12-22T12:32:54;7.60;99.90
59301;DHT22;45073;52.740;6.784;2023-12-22T12:35:20;7.50;99.90
59301;DHT22;45073;52.740;6.784;2023-12-22T12:37:49;7.50;99.90
59301;DHT22;45073;52.740;6.784;2023-12-22T12:40:16;7.60;99.90
59301;DHT22;45073;52.740;6.784;2023-12-22T12:42:44;7.60;99.90
59301;DHT22;45073;52.740;6.784;2023-12-22T12:45:10;7.60;99.90
59301;DHT22;45073;52.740;6.784;2023-12-22T12:47:35;7.60;99.90
59301;DHT22;45073;52.740;6.784;2023-12-22T12:50:02;7.60;99.90
59301;DHT22;45073;52.740;6.784;2023-12-22T12:52:28;7.60;99.90
59301;DHT22;45073;52.740;6.784;2023-12-22T12:54:54;7.60;99.90
59301;DHT22;45073;52.740;6.784;2023-12-22T12:57:21;7.60;99.90
59301;DHT22;45073;52.740;6.784;2023-12-22T12:59:48;7.60;99.90
59301;DHT22;45073;52.740;6.784;2023-12-22T13:02:15;7.60;99.90
59301;DHT22;45073;52.740;6.784;2023-12-22T13:04:41;7.60;99.90
59301;DHT22;45073;52.740;6.784;2023-12-22T13:07:08;7.60;99.90
59301;DHT22;45073;52.740;6.784;2023-12-22T13:09:35;7.60;99.90
59301;DHT22;45073;52.740;6.784;2023-12-22T13:12:02;7.60;99.90
59301;DHT22;45073;52.740;6.784;2023-12-22T13:14:28;7.60;99.90
59301;DHT22;45073;52.740;6.784;2023-12-22T13:16:55;7.60;99.90
59301;DHT22;45073;52.740;6.784;2023-12-22T13:19:25;7.60;99.90
59301;DHT22;45073;52.740;6.784;2023-12-22T13:21:54;7.60;99.90
59301;DHT22;45073;52.740;6.784;2023-12-22T13:24:20;7.60;99.90
59301;DHT22;45073;52.740;6.784;2023-12-22T13:26:46;7.60;99.90
59301;DHT22;45073;52.740;6.784;2023-12-22T13:29:13;7.60;99.90
59301;DHT22;45073;52.740;6.784;2023-12-22T13:31:40;7.60;99.90
59301;DHT22;45073;52.740;6.784;2023-12-22T13:34:10;7.60;99.90
59301;DHT22;45073;52.740;6.784;2023-12-22T13:36:37;7.70;99.90
59301;DHT22;45073;52.740;6.784;2023-12-22T13:39:07;7.60;99.90
59301;DHT22;45073;52.740;6.784;2023-12-22T13:41:34;7.70;99.90
59301;DHT22;45073;52.740;6.784;2023-12-22T13:44:04;7.70;99.90
59301;DHT22;45073;52.740;6.784;2023-12-22T13:46:30;7.70;99.90
59301;DHT22;45073;52.740;6.784;2023-12-22T13:48:57;7.70;99.90
59301;DHT22;45073;52.740;6.784;2023-12-22T13:51:23;7.70;99.90
59301;DHT22;45073;52.740;6.784;2023-12-22T13:53:49;7.70;99.90
59301;DHT22;45073;52.740;6.784;2023-12-22T13:56:15;7.70;99.90
59301;DHT22;45073;52.740;6.784;2023-12-22T13:58:48;7.70;99.90
59301;DHT22;45073;52.740;6.784;2023-12-22T14:01:14;7.70;99.90
59301;DHT22;45073;52.740;6.784;2023-12-22T14:03:44;7.70;99.90
59301;DHT22;45073;52.740;6.784;2023-12-22T14:06:11;7.60;99.90
59301;DHT22;45073;52.740;6.784;2023-12-22T14:08:39;7.60;99.90
59301;DHT22;45073;52.740;6.784;2023-12-22T14:11:05;7.60;99.90
59301;DHT22;45073;52.740;6.784;2023-12-22T14:13:31;7.60;99.90
59301;DHT22;45073;52.740;6.784;2023-12-22T14:15:57;7.50;99.90
59301;DHT22;45073;52.740;6.784;2023-12-22T14:18:22;7.50;99.90
59301;DHT22;45073;52.740;6.784;2023-12-22T14:20:48;7.50;99.90
59301;DHT22;45073;52.740;6.784;2023-12-22T14:23:14;7.50;99.90
59301;DHT22;45073;52.740;6.784;2023-12-22T14:25:42;7.40;99.90
59301;DHT22;45073;52.740;6.784;2023-12-22T14:28:08;7.40;99.90
59301;DHT22;45073;52.740;6.784;2023-12-22T14:30:34;7.40;99.90
59301;DHT22;45073;52.740;6.784;2023-12-22T14:33:00;7.40;99.90
59301;DHT22;45073;52.740;6.784;2023-12-22T14:35:25;7.40;99.90
59301;DHT22;45073;52.740;6.784;2023-12-22T14:37:51;7.40;99.90
59301;DHT22;45073;52.740;6.784;2023-12-22T14:40:16;7.40;99.90
59301;DHT22;45073;52.740;6.784;2023-12-22T14:42:42;7.40;99.90
59301;DHT22;45073;52.740;6.784;2023-12-22T14:45:08;7.40;99.90
59301;DHT22;45073;52.740;6.784;2023-12-22T14:47:34;7.50;99.90
59301;DHT22;45073;52.740;6.784;2023-12-22T14:50:01;7.40;99.90
59301;DHT22;45073;52.740;6.784;2023-12-22T14:52:31;7.50;99.90
59301;DHT22;45073;52.740;6.784;2023-12-22T14:54:58;7.40;99.90
59301;DHT22;45073;52.740;6.784;2023-12-22T14:57:24;7.50;99.90
59301;DHT22;45073;52.740;6.784;2023-12-22T14:59:49;7.50;99.90
59301;DHT22;45073;52.740;6.784;2023-12-22T15:02:15;7.50;99.90
59301;DHT22;45073;52.740;6.784;2023-12-22T15:04:40;7.50;99.90
59301;DHT22;45073;52.740;6.784;2023-12-22T15:07:07;7.50;99.90
59301;DHT22;45073;52.740;6.784;2023-12-22T15:09:32;7.50;99.90
59301;DHT22;45073;52.740;6.784;2023-12-22T15:11:58;7.50;99.90
59301;DHT22;45073;52.740;6.784;2023-12-22T15:14:24;7.50;99.90
59301;DHT22;45073;52.740;6.784;2023-12-22T15:16:49;7.50;99.90
59301;DHT22;45073;52.740;6.784;2023-12-22T15:19:17;7.50;99.90
59301;DHT22;45073;52.740;6.784;2023-12-22T15:21:43;7.50;99.90
59301;DHT22;45073;52.740;6.784;2023-12-22T15:24:09;7.50;99.90
59301;DHT22;45073;52.740;6.784;2023-12-22T15:26:35;7.50;99.90
59301;DHT22;45073;52.740;6.784;2023-12-22T15:29:04;7.50;99.90
59301;DHT22;45073;52.740;6.784;2023-12-22T15:31:30;7.50;99.90
59301;DHT22;45073;52.740;6.784;2023-12-22T15:33:59;7.40;99.90
59301;DHT22;45073;52.740;6.784;2023-12-22T15:36:25;7.50;99.90
59301;DHT22;45073;52.740;6.784;2023-12-22T15:38:52;7.50;99.90
59301;DHT22;45073;52.740;6.784;2023-12-22T15:41:18;7.50;99.90
59301;DHT22;45073;52.740;6.784;2023-12-22T15:43:44;7.50;99.90
59301;DHT22;45073;52.740;6.784;2023-12-22T15:46:09;7.50;99.90
59301;DHT22;45073;52.740;6.784;2023-12-22T15:48:36;7.50;99.90
59301;DHT22;45073;52.740;6.784;2023-12-22T15:51:12;7.50;99.90